createdAt,value
2022-11-08T00:02:03.852Z,3.00
2022-11-08T00:05:25.965Z,3.00
2022-11-08T00:08:47.320Z,2.93
2022-11-08T00:12:08.989Z,2.99
2022-11-08T00:15:11.593Z,2.95
2022-11-08T00:18:14.726Z,2.97
2022-11-08T00:21:17.415Z,2.88
2022-11-08T00:24:20.407Z,2.75
2022-11-08T00:27:24.773Z,2.84
2022-11-08T00:30:27.774Z,2.85
2022-11-08T00:33:30.576Z,2.96
2022-11-08T00:36:34.557Z,3.02
2022-11-08T00:39:37.284Z,3.07
2022-11-08T00:42:40.312Z,3.13
2022-11-08T00:45:43.073Z,3.24
2022-11-08T00:48:46.074Z,3.14
2022-11-08T00:51:48.791Z,3.19
2022-11-08T00:54:52.003Z,3.22
2022-11-08T00:57:59.436Z,3.22
2022-11-08T01:01:16.931Z,3.03
2022-11-08T01:04:20.533Z,3.04
2022-11-08T01:07:23.527Z,3.06
2022-11-08T01:10:26.227Z,3.12
2022-11-08T01:13:29.883Z,3.07
2022-11-08T01:16:33.974Z,3.14
2022-11-08T01:19:36.867Z,3.08
2022-11-08T01:22:39.589Z,3.02
2022-11-08T01:25:45.533Z,3.12
2022-11-08T01:28:48.897Z,3.18
2022-11-08T01:31:51.881Z,3.23
2022-11-08T01:34:54.568Z,3.31
2022-11-08T01:37:57.507Z,3.41
2022-11-08T01:41:00.258Z,3.54
2022-11-08T01:44:03.272Z,3.57
2022-11-08T01:47:06.193Z,3.70
2022-11-08T01:50:16.761Z,3.76
2022-11-08T01:53:19.841Z,3.85
2022-11-08T01:56:23.198Z,3.87
2022-11-08T01:59:26.561Z,3.92
2022-11-08T02:02:30.552Z,3.94
2022-11-08T02:05:34.378Z,3.97
2022-11-08T02:08:41.170Z,4.02
2022-11-08T02:11:45.509Z,4.06
2022-11-08T02:14:48.237Z,4.11
2022-11-08T02:17:52.261Z,4.18
2022-11-08T02:21:07.037Z,4.21
2022-11-08T02:24:12.239Z,4.23
2022-11-08T02:27:15.210Z,4.31
2022-11-08T02:30:18.153Z,4.27
2022-11-08T02:33:23.148Z,4.27
2022-11-08T02:36:26.086Z,4.25
2022-11-08T02:39:30.133Z,4.23
2022-11-08T02:42:33.057Z,4.29
2022-11-08T02:45:35.845Z,4.27
2022-11-08T02:48:38.785Z,4.25
2022-11-08T02:51:41.415Z,4.22
2022-11-08T02:54:44.314Z,4.18
2022-11-08T02:57:46.960Z,4.22
2022-11-08T03:00:50.264Z,4.27
2022-11-08T03:03:53.046Z,4.29
2022-11-08T03:06:56.014Z,4.32
2022-11-08T03:09:58.724Z,4.31
2022-11-08T03:13:04.054Z,4.29
2022-11-08T03:16:07.090Z,4.34
2022-11-08T03:19:12.082Z,4.39
2022-11-08T03:22:15.720Z,4.45
2022-11-08T03:25:18.783Z,4.42
2022-11-08T03:28:23.349Z,4.46
2022-11-08T03:31:26.591Z,4.43
2022-11-08T03:34:29.285Z,4.37
2022-11-08T03:37:32.309Z,4.33
2022-11-08T03:40:35.512Z,4.32
2022-11-08T03:43:38.586Z,4.25
2022-11-08T03:46:41.352Z,4.21
2022-11-08T03:49:44.273Z,3.96
2022-11-08T03:52:52.006Z,3.82
2022-11-08T03:55:54.957Z,3.67
2022-11-08T03:58:57.605Z,3.44
2022-11-08T04:02:02.779Z,3.38
2022-11-08T04:05:07.880Z,3.50
2022-11-08T04:08:11.205Z,3.58
2022-11-08T04:11:32.997Z,3.67
2022-11-08T04:14:54.263Z,3.62
2022-11-08T04:18:17.267Z,3.73
2022-11-08T04:21:21.815Z,3.70
2022-11-08T04:24:24.952Z,3.51
2022-11-08T04:27:27.554Z,3.36
2022-11-08T04:30:31.471Z,3.48
2022-11-08T04:33:34.814Z,3.26
2022-11-08T04:36:37.895Z,3.14
2022-11-08T04:39:40.570Z,2.95
2022-11-08T04:42:44.961Z,2.80
2022-11-08T04:45:47.606Z,2.53
2022-11-08T04:48:56.247Z,2.82
2022-11-08T04:51:58.805Z,2.94
2022-11-08T04:55:01.760Z,2.68
2022-11-08T04:58:04.384Z,2.74
2022-11-08T05:01:09.714Z,2.51
2022-11-08T05:04:12.425Z,2.66
2022-11-08T05:07:15.527Z,2.91
2022-11-08T05:10:18.489Z,2.98
2022-11-08T05:13:21.426Z,2.71
2022-11-08T05:16:32.402Z,2.73
2022-11-08T05:19:53.765Z,2.63
2022-11-08T05:23:19.575Z,2.75
2022-11-08T05:26:22.766Z,2.84
2022-11-08T05:29:25.373Z,3.24
2022-11-08T05:32:28.457Z,3.30
2022-11-08T05:35:32.937Z,3.21
2022-11-08T05:38:36.365Z,3.33
2022-11-08T05:41:39.174Z,3.34
2022-11-08T05:44:42.185Z,3.11
2022-11-08T05:47:45.875Z,2.94
2022-11-08T05:50:49.443Z,2.91
2022-11-08T05:53:52.393Z,2.53
2022-11-08T05:56:55.350Z,2.16
2022-11-08T05:59:58.018Z,2.40
2022-11-08T06:03:05.726Z,2.80
2022-11-08T06:06:13.940Z,2.76
2022-11-08T06:09:16.610Z,2.79
2022-11-08T06:12:20.646Z,2.51
2022-11-08T06:15:23.310Z,2.06
2022-11-08T06:18:26.212Z,1.92
2022-11-08T06:21:28.890Z,2.89
2022-11-08T06:24:31.812Z,2.97
2022-11-08T06:27:34.753Z,2.96
2022-11-08T06:30:38.023Z,2.76
2022-11-08T06:33:40.764Z,2.71
2022-11-08T06:36:43.712Z,2.81
2022-11-08T06:39:46.408Z,2.97
2022-11-08T06:42:49.476Z,2.78
2022-11-08T06:45:52.010Z,2.84
2022-11-08T06:48:54.971Z,2.92
2022-11-08T06:51:57.595Z,3.03
2022-11-08T06:55:00.549Z,3.13
2022-11-08T06:58:04.348Z,3.19
2022-11-08T07:01:09.388Z,3.14
2022-11-08T07:04:12.124Z,3.25
2022-11-08T07:07:14.946Z,3.40
2022-11-08T07:10:22.314Z,3.46
2022-11-08T07:13:25.292Z,3.39
2022-11-08T07:16:27.977Z,3.69
2022-11-08T07:19:30.821Z,3.78
2022-11-08T07:22:33.433Z,3.84
2022-11-08T07:25:37.291Z,3.87
2022-11-08T07:28:40.204Z,3.95
2022-11-08T07:31:43.182Z,4.07
2022-11-08T07:34:45.845Z,4.38
2022-11-08T07:37:48.893Z,4.48
2022-11-08T07:40:51.648Z,4.74
2022-11-08T07:43:54.444Z,4.74
2022-11-08T07:46:57.027Z,4.74
2022-11-08T07:50:00.470Z,4.87
2022-11-08T07:53:05.329Z,4.73
2022-11-08T07:56:08.217Z,4.83
2022-11-08T07:59:10.923Z,4.96
2022-11-08T08:02:14.856Z,4.98
2022-11-08T08:05:18.256Z,5.08
2022-11-08T08:08:21.361Z,5.15
2022-11-08T08:11:27.189Z,5.21
2022-11-08T08:14:33.700Z,5.37
2022-11-08T08:17:36.545Z,5.47
2022-11-08T08:20:39.335Z,5.50
2022-11-08T08:23:42.253Z,5.68
2022-11-08T08:26:44.880Z,5.76
2022-11-08T08:29:47.774Z,5.70
2022-11-08T08:33:08.439Z,5.46
2022-11-08T08:36:11.688Z,5.91
2022-11-08T08:39:14.468Z,6.22
2022-11-08T08:42:17.396Z,6.04
2022-11-08T09:29:50.484Z,9.67
2022-11-08T09:33:00.692Z,9.11
2022-11-08T09:36:05.443Z,8.91
2022-11-08T09:39:08.499Z,9.19
2022-11-08T09:42:22.285Z,9.23
2022-11-08T09:45:32.057Z,9.11
2022-11-08T09:48:37.600Z,8.99
2022-11-08T09:51:43.113Z,8.82
2022-11-08T09:54:47.540Z,8.58
2022-11-08T09:57:59.602Z,8.10
2022-11-08T10:01:03.268Z,8.76
2022-11-08T10:04:15.163Z,8.74
2022-11-08T10:07:28.479Z,8.58
2022-11-08T10:10:51.428Z,8.34
2022-11-08T10:14:18.001Z,8.41
2022-11-08T10:17:44.825Z,8.51
2022-11-08T10:21:08.195Z,8.27
2022-11-08T10:24:21.573Z,8.39
2022-11-08T10:27:42.868Z,8.46
2022-11-08T10:30:49.691Z,8.47
2022-11-08T10:33:55.163Z,8.45
2022-11-08T10:37:06.625Z,8.27
2022-11-08T10:40:22.525Z,8.20
2022-11-08T10:43:36.405Z,8.12
2022-11-08T10:46:45.017Z,8.42
2022-11-08T10:49:47.953Z,8.47
2022-11-08T10:53:04.643Z,8.35
2022-11-08T10:56:07.624Z,8.14
2022-11-08T10:59:29.961Z,8.30
2022-11-08T11:02:35.554Z,8.32
2022-11-08T11:05:42.605Z,8.54
2022-11-08T11:08:59.662Z,8.54
2022-11-08T11:12:08.627Z,9.05
2022-11-08T11:15:15.702Z,8.97
2022-11-08T11:18:49.279Z,8.94
2022-11-08T11:21:57.330Z,8.97
2022-11-08T11:25:07.570Z,9.21
2022-11-08T11:28:14.171Z,9.52
2022-11-08T11:31:17.085Z,9.40
2022-11-08T11:34:19.878Z,9.74
2022-11-08T11:37:34.257Z,9.85
2022-11-08T11:40:48.454Z,10.15
2022-11-08T11:44:29.759Z,10.43
2022-11-08T11:47:44.181Z,10.72
2022-11-08T11:50:48.999Z,11.04
2022-11-08T11:53:51.959Z,11.14
2022-11-08T11:57:29.074Z,11.41
2022-11-08T12:00:35.613Z,11.71
2022-11-08T12:04:02.579Z,11.74
2022-11-08T12:07:16.892Z,11.90
2022-11-08T12:10:26.163Z,12.04
2022-11-08T12:13:54.668Z,12.16
2022-11-08T12:17:19.895Z,12.56
2022-11-08T12:20:50.894Z,12.85
2022-11-08T12:24:09.152Z,12.99
2022-11-08T12:27:17.768Z,12.81
2022-11-08T12:30:30.260Z,12.93
2022-11-08T12:33:44.309Z,12.88
2022-11-08T12:37:02.433Z,13.01
2022-11-08T12:40:05.427Z,12.86
2022-11-08T12:43:25.789Z,12.85
2022-11-08T12:46:32.660Z,12.76
2022-11-08T12:49:57.326Z,12.83
2022-11-08T12:53:48.594Z,12.76
2022-11-08T12:56:55.430Z,12.80
2022-11-08T13:00:14.410Z,12.75
2022-11-08T13:03:17.362Z,12.66
2022-11-08T13:06:35.243Z,12.74
2022-11-08T13:10:01.120Z,12.66
2022-11-08T13:13:23.059Z,12.71
2022-11-08T13:16:28.570Z,12.58
2022-11-08T13:19:46.583Z,12.60
2022-11-08T13:23:00.757Z,12.57
2022-11-08T13:26:20.648Z,12.51
2022-11-08T13:29:27.446Z,12.67
2022-11-08T13:32:54.226Z,12.53
2022-11-08T13:36:07.398Z,12.47
2022-11-08T13:39:33.335Z,12.41
2022-11-08T13:42:36.194Z,12.39
2022-11-08T13:45:38.873Z,12.45
2022-11-08T13:48:42.705Z,12.40
2022-11-08T13:51:46.284Z,12.34
2022-11-08T13:54:51.964Z,12.42
2022-11-08T13:57:59.003Z,12.32
2022-11-08T14:01:05.122Z,12.26
2022-11-08T14:04:37.222Z,12.26
2022-11-08T14:07:48.750Z,12.19
2022-11-08T14:11:22.731Z,12.09
2022-11-08T14:14:37.286Z,12.03
2022-11-08T14:17:53.920Z,12.03
2022-11-08T14:20:57.445Z,11.95
2022-11-08T14:24:01.816Z,11.84
2022-11-08T14:27:04.591Z,11.74
2022-11-08T14:30:19.218Z,11.80
2022-11-08T14:33:24.721Z,11.62
2022-11-08T14:36:30.404Z,11.50
2022-11-08T14:39:35.564Z,11.44
2022-11-08T14:42:44.456Z,11.37
2022-11-08T14:45:47.622Z,11.26
2022-11-08T14:48:55.673Z,11.23
2022-11-08T14:52:14.654Z,11.20
2022-11-08T14:55:24.087Z,11.06
2022-11-08T14:58:30.081Z,10.92
2022-11-08T15:01:34.987Z,10.88
2022-11-08T15:04:40.609Z,10.86
2022-11-08T15:07:46.696Z,10.79
2022-11-08T15:11:04.866Z,10.68
2022-11-08T15:14:18.650Z,10.57
2022-11-08T15:17:39.911Z,10.51
2022-11-08T15:20:58.290Z,10.48
2022-11-08T15:24:09.684Z,10.34
2022-11-08T15:27:12.676Z,10.34
2022-11-08T15:30:32.988Z,10.39
2022-11-08T15:33:38.682Z,10.24
2022-11-08T15:36:41.559Z,10.27
2022-11-08T15:39:46.079Z,10.11
2022-11-08T15:42:51.671Z,10.09
2022-11-08T15:45:54.955Z,10.01
2022-11-08T15:48:59.039Z,9.90
2022-11-08T15:52:03.696Z,9.82
2022-11-08T15:55:08.006Z,9.80
2022-11-08T15:58:17.125Z,9.81
2022-11-08T16:01:21.031Z,9.69
2022-11-08T16:04:25.080Z,9.76
2022-11-08T16:07:27.995Z,9.56
2022-11-08T16:10:43.845Z,9.57
2022-11-08T16:13:49.048Z,9.53
2022-11-08T16:16:52.360Z,9.48
2022-11-08T16:19:55.264Z,9.55
2022-11-08T16:23:00.972Z,9.51
2022-11-08T16:26:05.853Z,9.50
2022-11-08T16:29:24.679Z,9.42
2022-11-08T16:32:28.014Z,9.39
2022-11-08T16:35:35.206Z,9.27
2022-11-08T16:38:38.548Z,9.29
2022-11-08T16:41:42.854Z,9.23
2022-11-08T16:44:46.266Z,9.18
2022-11-08T16:47:51.773Z,9.14
2022-11-08T16:51:00.579Z,9.07
2022-11-08T16:54:15.334Z,8.93
2022-11-08T16:57:35.493Z,8.85
2022-11-08T17:00:46.548Z,8.79
2022-11-08T17:03:50.506Z,8.70
2022-11-08T17:06:53.664Z,8.67
2022-11-08T17:09:56.649Z,8.65
2022-11-08T17:12:59.868Z,8.56
2022-11-08T17:16:02.771Z,8.50
2022-11-08T17:19:06.742Z,8.37
2022-11-08T17:22:10.041Z,8.31
2022-11-08T17:25:19.096Z,8.15
2022-11-08T17:28:21.971Z,8.25
2022-11-08T17:31:25.136Z,8.25
2022-11-08T17:34:29.595Z,8.12
2022-11-08T17:37:33.753Z,8.13
2022-11-08T17:40:37.012Z,8.22
2022-11-08T17:43:42.208Z,7.89
2022-11-08T17:46:45.072Z,8.09
2022-11-08T17:49:48.757Z,7.98
2022-11-08T17:52:54.294Z,8.10
2022-11-08T17:56:03.269Z,7.90
